createdAt,value
2018-03-11T00:02:04.059Z,82.49
2018-03-11T00:04:33.140Z,81.23
2018-03-11T00:07:02.346Z,81.75
2018-03-11T00:09:31.449Z,81.08
2018-03-11T00:12:00.813Z,80.79
2018-03-11T00:14:30.053Z,80.96
2018-03-11T00:16:59.033Z,80.61
2018-03-11T00:19:28.307Z,80.40
2018-03-11T00:21:57.744Z,80.01
2018-03-11T00:24:26.972Z,80.53
2018-03-11T00:26:56.413Z,81.12
2018-03-11T00:29:25.593Z,81.48
2018-03-11T00:31:54.744Z,81.33
2018-03-11T00:34:24.121Z,81.47
2018-03-11T00:36:53.289Z,81.29
2018-03-11T00:39:22.608Z,81.11
2018-03-11T00:41:51.849Z,81.33
2018-03-11T00:44:21.571Z,81.03
2018-03-11T00:46:50.608Z,81.02
2018-03-11T00:49:19.853Z,80.89
2018-03-11T00:51:49.053Z,80.79
2018-03-11T00:54:18.263Z,80.47
2018-03-11T00:56:47.406Z,80.16
2018-03-11T00:59:16.406Z,80.87
2018-03-11T01:01:45.638Z,80.87
2018-03-11T01:04:15.055Z,81.77
2018-03-11T01:06:44.347Z,82.24
2018-03-11T01:09:13.678Z,83.11
2018-03-11T01:11:42.711Z,84.02
2018-03-11T01:14:11.754Z,84.47
2018-03-11T01:16:40.985Z,84.48
2018-03-11T01:19:10.381Z,84.38
2018-03-11T01:21:39.637Z,84.49
2018-03-11T01:24:08.920Z,84.14
2018-03-11T01:26:38.555Z,84.71
2018-03-11T01:29:07.797Z,84.38
2018-03-11T01:31:36.775Z,83.47
2018-03-11T01:34:05.833Z,84.04
2018-03-11T01:36:35.137Z,83.50
2018-03-11T01:39:04.418Z,83.14
2018-03-11T01:41:33.632Z,83.40
2018-03-11T01:44:03.151Z,83.48
2018-03-11T01:46:32.566Z,83.35
2018-03-11T01:49:01.845Z,82.60
2018-03-11T01:51:31.177Z,82.48
2018-03-11T01:54:00.465Z,82.42
2018-03-11T01:56:29.704Z,82.80
2018-03-11T01:58:58.961Z,82.62
2018-03-11T02:01:28.191Z,83.03
2018-03-11T02:03:57.505Z,83.32
2018-03-11T02:06:26.755Z,83.49
2018-03-11T02:08:56.181Z,83.93
2018-03-11T02:11:25.554Z,83.33
2018-03-11T02:13:54.854Z,83.75
2018-03-11T02:16:24.163Z,83.77
2018-03-11T02:18:53.369Z,83.58
2018-03-11T02:21:22.584Z,83.02
2018-03-11T02:23:51.862Z,82.63
2018-03-11T02:26:21.163Z,81.63
2018-03-11T02:28:50.553Z,80.91
2018-03-11T02:31:19.919Z,81.38
2018-03-11T02:33:49.423Z,81.37
2018-03-11T02:36:20.619Z,78.35
2018-03-11T02:38:49.989Z,78.91
2018-03-11T02:41:19.618Z,79.44
2018-03-11T02:43:48.728Z,80.43
2018-03-11T02:46:17.671Z,80.42
2018-03-11T02:48:46.772Z,81.68
2018-03-11T02:51:15.996Z,81.92
2018-03-11T02:53:45.190Z,81.82
2018-03-11T02:56:14.605Z,82.68
2018-03-11T02:58:43.941Z,83.11
2018-03-11T03:01:13.223Z,83.33
2018-03-11T03:03:42.969Z,82.91
2018-03-11T03:06:12.551Z,83.43
2018-03-11T03:08:42.080Z,83.92
2018-03-11T03:11:11.275Z,84.40
2018-03-11T03:13:40.432Z,84.43
2018-03-11T03:16:09.937Z,84.62
2018-03-11T03:18:39.233Z,85.27
2018-03-11T03:21:08.473Z,85.38
2018-03-11T03:23:38.055Z,85.96
2018-03-11T03:26:07.247Z,86.34
2018-03-11T03:28:36.673Z,85.49
2018-03-11T03:31:06.220Z,84.95
2018-03-11T03:33:35.513Z,84.94
2018-03-11T03:36:04.810Z,84.20
2018-03-11T03:38:34.323Z,84.61
2018-03-11T03:41:03.293Z,84.47
2018-03-11T03:43:32.753Z,84.07
2018-03-11T03:46:02.262Z,84.11
2018-03-11T03:48:31.670Z,83.37
2018-03-11T03:51:00.757Z,83.52
2018-03-11T03:53:30.311Z,83.35
2018-03-11T03:55:59.497Z,83.31
2018-03-11T03:58:28.491Z,83.74
2018-03-11T04:00:57.705Z,84.62
2018-03-11T04:03:27.217Z,84.82
2018-03-11T04:05:56.325Z,85.12
2018-03-11T04:08:26.403Z,85.43
2018-03-11T04:10:55.437Z,85.35
2018-03-11T04:13:24.500Z,86.13
2018-03-11T04:15:54.035Z,86.53
2018-03-11T04:18:23.751Z,87.18
2018-03-11T04:20:53.037Z,87.19
2018-03-11T04:23:22.502Z,87.37
2018-03-11T04:25:51.750Z,86.91
2018-03-11T04:28:20.690Z,87.29
2018-03-11T04:30:50.078Z,87.46
2018-03-11T04:33:19.291Z,87.07
2018-03-11T04:35:48.751Z,87.06
2018-03-11T04:38:18.044Z,86.20
2018-03-11T04:40:47.744Z,85.39
2018-03-11T04:43:16.935Z,85.05
2018-03-11T04:45:46.449Z,84.65
2018-03-11T04:48:15.550Z,84.63
2018-03-11T04:50:45.380Z,84.58
2018-03-11T04:53:14.727Z,84.42
2018-03-11T04:55:43.969Z,84.18
2018-03-11T04:58:13.293Z,83.87
2018-03-11T05:03:23.954Z,84.22
2018-03-11T05:05:53.045Z,84.26
2018-03-11T05:08:22.065Z,83.63
2018-03-11T05:10:51.441Z,83.60
2018-03-11T05:13:20.834Z,82.79
2018-03-11T05:15:50.252Z,82.97
2018-03-11T05:18:19.403Z,82.83
2018-03-11T05:20:48.749Z,83.12
2018-03-11T05:23:18.366Z,82.74
2018-03-11T05:25:47.465Z,81.97
2018-03-11T05:28:16.853Z,82.07
2018-03-11T05:30:45.831Z,81.65
2018-03-11T05:33:15.092Z,81.71
2018-03-11T05:35:44.465Z,81.53
2018-03-11T05:38:13.565Z,80.78
2018-03-11T05:40:43.059Z,81.30
2018-03-11T05:43:12.802Z,81.83
2018-03-11T05:45:41.945Z,82.15
2018-03-11T05:48:10.906Z,82.87
2018-03-11T05:50:39.949Z,82.04
2018-03-11T05:53:09.389Z,81.29
2018-03-11T05:55:38.653Z,81.06
2018-03-11T05:58:07.767Z,81.36
2018-03-11T06:00:36.903Z,81.66
2018-03-11T06:03:05.977Z,81.95
2018-03-11T06:05:35.147Z,82.04
2018-03-11T06:08:04.447Z,82.08
2018-03-11T06:10:33.553Z,80.29
2018-03-11T06:13:02.837Z,82.64
2018-03-11T06:15:32.353Z,81.94
2018-03-11T06:18:01.488Z,82.64
2018-03-11T06:20:30.805Z,82.42
2018-03-11T06:22:59.990Z,82.84
2018-03-11T06:25:29.195Z,81.88
2018-03-11T06:27:58.650Z,80.87
2018-03-11T06:30:27.945Z,80.72
2018-03-11T06:32:57.041Z,79.88
2018-03-11T06:35:26.292Z,79.18
2018-03-11T06:37:55.745Z,78.95
2018-03-11T06:40:24.921Z,78.47
2018-03-11T06:42:53.966Z,77.37
2018-03-11T06:45:23.199Z,77.05
2018-03-11T06:47:52.595Z,77.30
2018-03-11T06:50:21.937Z,77.34
2018-03-11T06:52:51.400Z,75.81
2018-03-11T06:55:21.009Z,76.52
2018-03-11T06:57:50.310Z,76.07
2018-03-11T07:00:19.816Z,75.89
2018-03-11T07:02:49.261Z,75.21
2018-03-11T07:05:18.461Z,74.52
2018-03-11T07:07:47.664Z,73.51
2018-03-11T07:10:17.165Z,74.31
2018-03-11T07:12:46.481Z,74.99
2018-03-11T07:15:17.205Z,74.13
2018-03-11T07:17:46.509Z,74.19
2018-03-11T07:20:15.863Z,74.21
2018-03-11T07:22:45.054Z,74.60
2018-03-11T07:25:14.447Z,74.36
2018-03-11T07:27:43.581Z,74.98
2018-03-11T07:30:12.989Z,75.03
2018-03-11T07:32:42.186Z,74.94
2018-03-11T07:35:11.525Z,74.11
2018-03-11T07:37:40.798Z,72.41
2018-03-11T07:40:10.247Z,72.36
2018-03-11T07:42:39.811Z,71.35
2018-03-11T07:45:09.205Z,72.23
2018-03-11T07:47:38.772Z,71.91
2018-03-11T07:50:08.375Z,72.19
2018-03-11T07:52:37.670Z,71.82
2018-03-11T07:55:06.865Z,71.22
2018-03-11T07:57:35.909Z,71.13
2018-03-11T08:00:05.271Z,70.96
2018-03-11T08:02:34.575Z,70.18
2018-03-11T08:05:03.810Z,69.87
2018-03-11T08:07:33.123Z,69.35
2018-03-11T08:10:02.387Z,69.11
2018-03-11T08:12:31.728Z,68.69
2018-03-11T08:15:01.230Z,68.55
2018-03-11T08:17:30.669Z,67.77
2018-03-11T08:19:59.971Z,67.91
2018-03-11T08:22:29.441Z,67.19
2018-03-11T08:24:59.041Z,66.50
2018-03-11T08:27:28.363Z,65.91
2018-03-11T08:29:57.901Z,66.21
2018-03-11T08:32:27.350Z,66.21
2018-03-11T08:34:56.574Z,65.14
2018-03-11T08:37:25.689Z,65.90
2018-03-11T08:39:55.049Z,65.40
2018-03-11T08:42:24.453Z,65.07
2018-03-11T08:44:53.862Z,64.65
2018-03-11T08:47:23.418Z,64.49
2018-03-11T08:49:52.402Z,64.82
2018-03-11T08:52:21.761Z,63.77
2018-03-11T08:54:51.433Z,63.43
2018-03-11T08:57:20.683Z,62.45
2018-03-11T08:59:49.938Z,62.30
2018-03-11T09:02:19.090Z,61.62
2018-03-11T09:04:48.785Z,61.19
2018-03-11T09:07:18.061Z,60.83
2018-03-11T09:09:47.394Z,61.81
2018-03-11T09:12:16.795Z,60.37
2018-03-11T09:14:45.982Z,60.37
2018-03-11T09:17:15.251Z,59.11
2018-03-11T09:19:44.709Z,57.12
2018-03-11T09:22:14.410Z,57.18
2018-03-11T09:24:43.648Z,56.80
2018-03-11T09:27:12.833Z,53.71
2018-03-11T09:29:41.737Z,53.68
2018-03-11T09:32:10.895Z,54.04
2018-03-11T09:34:39.941Z,53.90
2018-03-11T09:37:09.325Z,53.61
2018-03-11T09:39:38.741Z,54.89
2018-03-11T09:42:07.898Z,54.96
2018-03-11T09:44:37.129Z,53.87
2018-03-11T09:47:06.489Z,54.35
2018-03-11T09:49:35.899Z,54.75
2018-03-11T09:52:05.089Z,55.46
2018-03-11T09:54:34.808Z,55.40
2018-03-11T09:57:04.239Z,55.46
2018-03-11T09:59:33.604Z,55.65
2018-03-11T10:02:02.821Z,54.89
2018-03-11T10:04:31.760Z,54.36
2018-03-11T10:07:01.121Z,53.98
2018-03-11T10:09:30.310Z,53.68
2018-03-11T10:11:59.708Z,53.84
2018-03-11T10:14:29.065Z,53.66
2018-03-11T10:16:58.422Z,52.96
2018-03-11T10:19:27.827Z,52.78
2018-03-11T10:21:56.994Z,53.20
2018-03-11T10:24:26.051Z,53.35
2018-03-11T10:26:55.178Z,53.22
2018-03-11T10:29:24.405Z,52.44
2018-03-11T10:31:53.609Z,52.33
2018-03-11T10:34:22.966Z,51.87
2018-03-11T10:36:52.254Z,51.15
2018-03-11T10:39:21.602Z,50.30
2018-03-11T10:41:51.217Z,49.91
2018-03-11T10:44:20.940Z,49.35
2018-03-11T10:46:50.392Z,46.92
2018-03-11T10:49:19.433Z,48.78
2018-03-11T10:51:48.647Z,50.02
2018-03-11T10:54:17.990Z,47.87
2018-03-11T10:56:47.289Z,46.43
2018-03-11T10:59:16.222Z,44.87
2018-03-11T11:01:46.215Z,45.89
2018-03-11T11:04:15.390Z,49.12
2018-03-11T11:06:44.681Z,48.34
2018-03-11T11:09:13.946Z,48.38
2018-03-11T11:11:43.284Z,47.38
2018-03-11T11:14:12.619Z,45.52
2018-03-11T11:16:42.159Z,44.13
2018-03-11T11:19:11.529Z,39.62
2018-03-11T11:21:40.856Z,39.27
2018-03-11T11:24:10.170Z,39.57
2018-03-11T11:26:39.302Z,42.83
2018-03-11T11:29:08.965Z,41.94
2018-03-11T11:31:37.922Z,42.15
2018-03-11T11:34:07.058Z,41.91
2018-03-11T11:36:36.233Z,43.55
2018-03-11T11:39:05.367Z,42.39
2018-03-11T11:41:34.561Z,43.08
2018-03-11T11:44:03.912Z,43.17
2018-03-11T11:46:33.197Z,42.05
2018-03-11T11:49:02.218Z,42.33
2018-03-11T11:51:31.564Z,41.88
2018-03-11T11:54:00.652Z,43.33
2018-03-11T11:56:30.253Z,41.90
2018-03-11T11:58:59.557Z,42.20
2018-03-11T12:01:28.753Z,42.36
2018-03-11T12:03:58.157Z,41.66
2018-03-11T12:06:27.267Z,41.16
2018-03-11T12:08:56.819Z,40.38
2018-03-11T12:11:26.166Z,39.73
2018-03-11T12:13:55.465Z,35.48
2018-03-11T12:16:24.819Z,32.56
2018-03-11T12:18:53.974Z,32.23
2018-03-11T12:21:23.386Z,32.92
2018-03-11T12:23:52.877Z,36.43
2018-03-11T12:26:22.444Z,40.57
2018-03-11T12:28:51.723Z,43.52
2018-03-11T12:31:20.886Z,45.66
2018-03-11T12:33:50.877Z,48.60
2018-03-11T12:36:19.915Z,46.43
2018-03-11T12:38:49.310Z,48.66
2018-03-11T12:41:18.642Z,46.84
2018-03-11T12:43:47.841Z,45.70
2018-03-11T12:46:16.942Z,44.89
2018-03-11T12:48:46.114Z,45.56
2018-03-11T12:51:15.319Z,45.03
2018-03-11T12:53:44.490Z,45.53
2018-03-11T12:56:13.899Z,44.68
2018-03-11T12:58:43.095Z,44.75
2018-03-11T13:01:12.086Z,46.03
2018-03-11T13:03:41.389Z,45.87
2018-03-11T13:06:10.662Z,45.47
2018-03-11T13:08:39.997Z,45.83
2018-03-11T13:11:08.809Z,47.45
2018-03-11T13:13:38.007Z,47.36
2018-03-11T13:16:07.163Z,47.64
2018-03-11T13:18:36.307Z,48.42
2018-03-11T13:21:07.593Z,48.00
2018-03-11T13:23:36.966Z,49.19
2018-03-11T13:26:05.710Z,49.36
2018-03-11T13:28:46.593Z,51.42
2018-03-11T13:31:16.011Z,52.49
2018-03-11T13:33:56.349Z,52.59
2018-03-11T13:36:25.406Z,49.91
2018-03-11T13:39:05.817Z,50.36
2018-03-11T13:41:35.049Z,50.96
2018-03-11T13:44:04.247Z,51.13
2018-03-11T13:46:44.698Z,52.16
2018-03-11T13:49:13.534Z,51.90
2018-03-11T13:51:53.899Z,51.95
2018-03-11T13:54:22.914Z,53.32
2018-03-11T14:00:10.857Z,51.31
2018-03-11T14:02:40.073Z,51.24
2018-03-11T14:05:09.080Z,50.47
2018-03-11T14:07:38.357Z,50.91
2018-03-11T14:10:07.477Z,50.96
2018-03-11T14:12:36.702Z,49.88
2018-03-11T14:15:05.959Z,50.99
2018-03-11T14:17:35.339Z,50.34
2018-03-11T14:20:04.650Z,49.14
2018-03-11T14:22:33.819Z,50.65
2018-03-11T14:25:03.019Z,50.25
2018-03-11T14:27:32.381Z,48.30
2018-03-11T14:30:01.665Z,50.55
2018-03-11T14:32:31.079Z,48.78
2018-03-11T14:35:00.844Z,50.45
2018-03-11T14:37:29.998Z,50.69
2018-03-11T14:39:58.942Z,51.70
2018-03-11T14:42:28.206Z,52.90
2018-03-11T14:44:57.309Z,50.61
2018-03-11T14:47:26.403Z,52.53
2018-03-11T14:49:55.524Z,49.96
2018-03-11T14:52:25.030Z,49.70
2018-03-11T14:54:54.229Z,50.77
2018-03-11T14:57:23.750Z,52.49
2018-03-11T14:59:52.869Z,53.29
2018-03-11T15:02:22.070Z,56.74
2018-03-11T15:04:51.226Z,56.06
2018-03-11T15:07:20.325Z,57.66
2018-03-11T15:09:49.382Z,57.75
2018-03-11T15:12:18.473Z,56.36
2018-03-11T15:14:47.831Z,56.66
2018-03-11T15:17:17.023Z,59.48
2018-03-11T15:19:46.206Z,62.90
2018-03-11T15:22:15.385Z,62.75
2018-03-11T15:24:44.981Z,62.68
2018-03-11T15:27:14.023Z,62.11
2018-03-11T15:29:43.487Z,64.03
2018-03-11T15:32:13.048Z,62.13
2018-03-11T15:34:42.387Z,61.97
2018-03-11T15:37:11.598Z,61.40
2018-03-11T15:39:40.765Z,60.19
2018-03-11T15:42:09.879Z,60.95
2018-03-11T15:44:39.022Z,61.66
2018-03-11T15:49:43.785Z,62.97
2018-03-11T15:52:13.133Z,62.25
2018-03-11T15:54:42.460Z,61.84
2018-03-11T15:57:11.858Z,62.23
2018-03-11T15:59:41.004Z,60.79
2018-03-11T16:02:10.422Z,59.54
2018-03-11T16:04:39.517Z,58.71
2018-03-11T16:07:08.614Z,58.59
2018-03-11T16:09:37.857Z,57.94
2018-03-11T16:12:07.165Z,59.83
2018-03-11T16:14:36.413Z,61.10
2018-03-11T16:17:05.607Z,60.69
2018-03-11T16:19:34.779Z,61.96
2018-03-11T16:22:04.011Z,62.83
2018-03-11T16:24:39.617Z,62.89
2018-03-11T16:27:02.601Z,63.52
2018-03-11T16:29:32.063Z,65.25
2018-03-11T16:32:01.170Z,67.85
2018-03-11T16:34:30.336Z,68.12
2018-03-11T16:36:59.541Z,69.29
2018-03-11T16:39:28.497Z,70.09
2018-03-11T16:41:57.545Z,69.22
2018-03-11T16:44:26.623Z,69.55
2018-03-11T16:46:55.885Z,69.96
2018-03-11T16:49:25.019Z,69.19
2018-03-11T16:51:54.122Z,68.08
2018-03-11T16:54:23.208Z,67.70
2018-03-11T16:56:52.467Z,67.93
2018-03-11T16:59:21.519Z,66.77
2018-03-11T17:01:50.609Z,66.56
2018-03-11T17:04:20.040Z,67.05
2018-03-11T17:06:49.299Z,66.51
2018-03-11T17:09:18.786Z,66.17
2018-03-11T17:11:48.109Z,65.56
2018-03-11T17:14:18.265Z,65.49
2018-03-11T17:16:47.701Z,65.31
2018-03-11T17:19:16.826Z,65.88
2018-03-11T17:21:45.758Z,65.69
2018-03-11T17:24:14.983Z,64.82
2018-03-11T17:26:44.549Z,65.63
2018-03-11T17:29:13.867Z,65.67
2018-03-11T17:31:43.006Z,65.79
2018-03-11T17:34:11.951Z,66.57
2018-03-11T17:36:40.987Z,66.90
2018-03-11T17:39:10.240Z,68.07
2018-03-11T17:41:39.386Z,68.57
2018-03-11T17:44:08.615Z,68.77
2018-03-11T17:46:37.565Z,67.89
2018-03-11T17:49:06.622Z,68.44
2018-03-11T17:51:35.799Z,68.33
2018-03-11T17:54:04.947Z,67.90
2018-03-11T17:56:34.168Z,67.51
2018-03-11T17:59:02.937Z,68.19
2018-03-11T18:01:32.394Z,67.43
2018-03-11T18:04:01.577Z,67.97
2018-03-11T18:06:30.750Z,68.24
2018-03-11T18:09:00.457Z,68.69
2018-03-11T18:11:29.459Z,68.92
2018-03-11T18:13:58.810Z,69.58
2018-03-11T18:16:27.862Z,69.82
2018-03-11T18:18:57.042Z,71.56
2018-03-11T18:21:26.489Z,72.70
2018-03-11T18:23:55.341Z,72.67
2018-03-11T18:26:24.813Z,73.00
2018-03-11T18:28:54.165Z,72.92
2018-03-11T18:31:23.236Z,71.56
2018-03-11T18:33:52.681Z,71.42
2018-03-11T18:36:22.053Z,70.33
2018-03-11T18:38:51.285Z,70.30
2018-03-11T18:41:20.665Z,70.86
2018-03-11T18:43:50.137Z,70.96
2018-03-11T18:46:19.349Z,70.78
2018-03-11T18:48:48.755Z,69.13
2018-03-11T18:51:18.196Z,70.96
2018-03-11T18:53:47.561Z,70.31
2018-03-11T18:56:16.782Z,69.49
2018-03-11T18:58:45.667Z,68.72
2018-03-11T19:01:15.093Z,68.02
2018-03-11T19:03:44.363Z,67.11
2018-03-11T19:06:13.593Z,66.76
2018-03-11T19:08:42.707Z,68.13
2018-03-11T19:11:12.063Z,68.45
2018-03-11T19:13:41.513Z,68.94
2018-03-11T19:16:10.857Z,68.77
2018-03-11T19:18:40.015Z,69.21
2018-03-11T19:21:08.983Z,67.48
2018-03-11T19:23:38.349Z,67.93
2018-03-11T19:26:08.018Z,68.30
2018-03-11T19:28:37.375Z,68.77
2018-03-11T19:31:06.878Z,68.78
2018-03-11T19:33:36.373Z,68.48
2018-03-11T19:36:05.683Z,68.30
2018-03-11T19:38:34.745Z,67.68
2018-03-11T19:41:04.226Z,67.88
2018-03-11T19:43:33.634Z,68.16
2018-03-11T19:46:02.748Z,68.06
2018-03-11T19:48:35.011Z,67.69
2018-03-11T19:51:04.502Z,68.47
2018-03-11T19:53:33.863Z,66.73
2018-03-11T19:56:03.177Z,67.60
2018-03-11T19:58:32.259Z,67.22
2018-03-11T20:01:01.573Z,66.13
2018-03-11T20:03:30.849Z,64.90
2018-03-11T20:06:00.457Z,62.89
2018-03-11T20:08:29.749Z,62.23
2018-03-11T20:10:58.852Z,63.51
2018-03-11T20:13:27.755Z,64.60
2018-03-11T20:15:57.030Z,65.23
2018-03-11T20:18:25.985Z,66.23
2018-03-11T20:20:55.321Z,67.19
2018-03-11T20:23:24.551Z,67.82
2018-03-11T20:25:53.900Z,68.61
2018-03-11T20:28:23.275Z,69.40
2018-03-11T20:30:52.443Z,70.47
2018-03-11T20:33:21.650Z,71.35
2018-03-11T20:35:51.150Z,72.54
2018-03-11T20:38:20.858Z,72.51
2018-03-11T20:40:50.097Z,72.77
2018-03-11T20:43:19.457Z,73.89
2018-03-11T20:45:48.598Z,77.90
2018-03-11T20:48:17.970Z,74.62
2018-03-11T20:50:46.962Z,75.92
2018-03-11T20:53:16.354Z,78.44
2018-03-11T20:55:45.681Z,80.43
2018-03-11T20:58:14.753Z,81.83
2018-03-11T21:00:43.889Z,82.39
2018-03-11T21:03:12.967Z,83.10
2018-03-11T21:05:42.185Z,83.40
2018-03-11T21:08:11.173Z,83.19
2018-03-11T21:10:40.120Z,84.62
2018-03-11T21:13:09.388Z,85.87
2018-03-11T21:15:38.505Z,84.61
2018-03-11T21:18:07.326Z,85.03
2018-03-11T21:20:36.061Z,83.93
2018-03-11T21:23:05.285Z,81.23
2018-03-11T21:25:34.726Z,76.85
2018-03-11T21:28:04.109Z,80.32
2018-03-11T21:30:33.657Z,80.57
2018-03-11T21:33:02.793Z,79.39
2018-03-11T21:35:31.825Z,79.07
2018-03-11T21:38:00.797Z,78.76
2018-03-11T21:40:29.939Z,77.87
2018-03-11T21:42:59.213Z,80.56
2018-03-11T21:45:28.540Z,82.21
2018-03-11T21:47:58.219Z,82.41
2018-03-11T21:50:27.709Z,82.53
2018-03-11T21:52:56.645Z,82.99
2018-03-11T21:55:25.856Z,80.79
2018-03-11T21:57:55.235Z,82.32
2018-03-11T22:00:24.435Z,82.80
2018-03-11T22:02:53.500Z,83.57
2018-03-11T22:05:22.673Z,83.87
2018-03-11T22:07:51.950Z,82.93
2018-03-11T22:10:21.577Z,82.79
2018-03-11T22:12:50.908Z,83.37
2018-03-11T22:15:20.253Z,81.23
2018-03-11T22:17:49.821Z,83.74
2018-03-11T22:20:19.620Z,84.87
2018-03-11T22:22:48.708Z,85.65
2018-03-11T22:25:17.831Z,85.88
2018-03-11T22:27:47.284Z,85.31
2018-03-11T22:30:16.738Z,86.18
2018-03-11T22:32:45.936Z,86.65
2018-03-11T22:35:15.417Z,87.34
2018-03-11T22:37:44.847Z,88.28
2018-03-11T22:40:14.069Z,87.51
2018-03-11T22:42:43.132Z,87.70
2018-03-11T22:45:12.597Z,87.66
2018-03-11T22:47:41.543Z,88.57
2018-03-11T22:50:10.481Z,88.50
2018-03-11T22:52:39.670Z,88.87
2018-03-11T22:55:09.067Z,88.55
2018-03-11T22:57:42.887Z,88.93
2018-03-11T23:00:12.183Z,89.17
2018-03-11T23:02:41.224Z,89.69
2018-03-11T23:05:10.630Z,89.43
2018-03-11T23:07:39.868Z,89.38
2018-03-11T23:10:09.035Z,90.96
2018-03-11T23:12:38.123Z,89.79
2018-03-11T23:15:07.321Z,89.55
2018-03-11T23:17:36.672Z,90.31
2018-03-11T23:20:05.717Z,91.45
2018-03-11T23:22:34.913Z,91.54
2018-03-11T23:25:04.010Z,92.51
2018-03-11T23:27:32.786Z,92.49
2018-03-11T23:30:01.914Z,92.20
2018-03-11T23:32:30.829Z,92.48
2018-03-11T23:34:59.984Z,92.52
2018-03-11T23:37:29.435Z,93.07
2018-03-11T23:39:58.529Z,93.47
2018-03-11T23:42:28.009Z,93.10
2018-03-11T23:44:56.942Z,92.15
2018-03-11T23:47:26.166Z,92.29
2018-03-11T23:49:55.361Z,93.06
2018-03-11T23:52:24.131Z,93.41
2018-03-11T23:54:53.000Z,93.49
2018-03-11T23:57:21.893Z,93.75
2018-03-11T23:59:51.217Z,93.63
